sensor_id;sensor_type;location;lat;lon;timestamp;P1;durP1;ratioP1;P2;durP2;ratioP2
61093;SDS011;46976;52.942;6.810;2022-12-19T00:01:09;39.22;;;28.63;;
61093;SDS011;46976;52.942;6.810;2022-12-19T00:03:41;41.63;;;28.10;;
61093;SDS011;46976;52.942;6.810;2022-12-19T00:06:07;26.30;;;11.18;;
61093;SDS011;46976;52.942;6.810;2022-12-19T00:08:33;31.05;;;13.68;;
61093;SDS011;46976;52.942;6.810;2022-12-19T00:11:00;28.40;;;13.20;;
61093;SDS011;46976;52.942;6.810;2022-12-19T00:13:27;38.47;;;27.88;;
61093;SDS011;46976;52.942;6.810;2022-12-19T00:15:54;30.73;;;12.77;;
61093;SDS011;46976;52.942;6.810;2022-12-19T00:18:20;29.55;;;13.75;;
61093;SDS011;46976;52.942;6.810;2022-12-19T00:20:53;32.97;;;13.32;;
61093;SDS011;46976;52.942;6.810;2022-12-19T00:23:19;40.67;;;28.67;;
61093;SDS011;46976;52.942;6.810;2022-12-19T00:25:45;27.85;;;12.50;;
61093;SDS011;46976;52.942;6.810;2022-12-19T00:28:11;28.60;;;13.00;;
61093;SDS011;46976;52.942;6.810;2022-12-19T00:30:37;28.98;;;11.77;;
61093;SDS011;46976;52.942;6.810;2022-12-19T00:33:03;41.40;;;28.70;;
61093;SDS011;46976;52.942;6.810;2022-12-19T00:35:29;33.03;;;12.20;;
61093;SDS011;46976;52.942;6.810;2022-12-19T00:37:55;40.53;;;28.30;;
61093;SDS011;46976;52.942;6.810;2022-12-19T00:40:22;28.05;;;12.65;;
61093;SDS011;46976;52.942;6.810;2022-12-19T00:42:48;28.48;;;13.00;;
61093;SDS011;46976;52.942;6.810;2022-12-19T00:45:14;27.33;;;11.93;;
61093;SDS011;46976;52.942;6.810;2022-12-19T00:47:40;41.22;;;29.33;;
61093;SDS011;46976;52.942;6.810;2022-12-19T00:50:06;30.55;;;13.18;;
61093;SDS011;46976;52.942;6.810;2022-12-19T00:52:32;30.85;;;12.93;;
61093;SDS011;46976;52.942;6.810;2022-12-19T00:54:58;28.90;;;12.05;;
61093;SDS011;46976;52.942;6.810;2022-12-19T00:57:25;41.85;;;28.58;;
61093;SDS011;46976;52.942;6.810;2022-12-19T00:59:51;26.58;;;12.02;;
61093;SDS011;46976;52.942;6.810;2022-12-19T01:02:17;38.78;;;28.60;;
61093;SDS011;46976;52.942;6.810;2022-12-19T01:04:43;40.30;;;27.35;;
61093;SDS011;46976;52.942;6.810;2022-12-19T01:07:09;32.78;;;14.00;;
61093;SDS011;46976;52.942;6.810;2022-12-19T01:09:35;27.75;;;12.27;;
61093;SDS011;46976;52.942;6.810;2022-12-19T01:12:02;33.25;;;14.27;;
61093;SDS011;46976;52.942;6.810;2022-12-19T01:14:47;41.28;;;29.33;;
61093;SDS011;46976;52.942;6.810;2022-12-19T01:17:14;39.28;;;27.88;;
61093;SDS011;46976;52.942;6.810;2022-12-19T01:19:40;42.78;;;29.38;;
61093;SDS011;46976;52.942;6.810;2022-12-19T01:22:06;31.42;;;12.75;;
61093;SDS011;46976;52.942;6.810;2022-12-19T01:24:32;26.52;;;12.63;;
61093;SDS011;46976;52.942;6.810;2022-12-19T01:26:58;29.23;;;12.13;;
61093;SDS011;46976;52.942;6.810;2022-12-19T01:29:24;25.40;;;11.20;;
61093;SDS011;46976;52.942;6.810;2022-12-19T01:31:50;40.75;;;28.60;;
61093;SDS011;46976;52.942;6.810;2022-12-19T01:34:16;30.55;;;12.07;;
61093;SDS011;46976;52.942;6.810;2022-12-19T01:36:42;39.63;;;28.40;;
61093;SDS011;46976;52.942;6.810;2022-12-19T01:39:08;32.13;;;12.55;;
61093;SDS011;46976;52.942;6.810;2022-12-19T01:41:34;28.80;;;11.75;;
61093;SDS011;46976;52.942;6.810;2022-12-19T01:44:03;40.22;;;27.73;;
61093;SDS011;46976;52.942;6.810;2022-12-19T01:46:32;29.20;;;11.40;;
61093;SDS011;46976;52.942;6.810;2022-12-19T01:48:59;27.70;;;11.55;;
61093;SDS011;46976;52.942;6.810;2022-12-19T01:51:28;39.88;;;27.65;;
61093;SDS011;46976;52.942;6.810;2022-12-19T01:53:56;41.58;;;28.50;;
61093;SDS011;46976;52.942;6.810;2022-12-19T01:56:25;41.95;;;28.80;;
61093;SDS011;46976;52.942;6.810;2022-12-19T01:58:53;39.63;;;27.90;;
61093;SDS011;46976;52.942;6.810;2022-12-19T02:01:19;28.50;;;11.35;;
61093;SDS011;46976;52.942;6.810;2022-12-19T02:03:45;27.58;;;11.25;;
61093;SDS011;46976;52.942;6.810;2022-12-19T02:06:12;26.08;;;11.57;;
61093;SDS011;46976;52.942;6.810;2022-12-19T02:08:38;39.95;;;27.65;;
61093;SDS011;46976;52.942;6.810;2022-12-19T02:11:05;42.10;;;28.90;;
61093;SDS011;46976;52.942;6.810;2022-12-19T02:13:31;43.13;;;28.13;;
61093;SDS011;46976;52.942;6.810;2022-12-19T02:28:44;27.33;;;11.95;;
61093;SDS011;46976;52.942;6.810;2022-12-19T02:33:53;27.10;;;12.50;;
61093;SDS011;46976;52.942;6.810;2022-12-19T02:36:21;48.15;;;30.35;;
61093;SDS011;46976;52.942;6.810;2022-12-19T02:38:54;48.40;;;30.52;;
61093;SDS011;46976;52.942;6.810;2022-12-19T02:41:24;49.58;;;32.92;;
61093;SDS011;46976;52.942;6.810;2022-12-19T02:43:52;51.20;;;33.15;;
61093;SDS011;46976;52.942;6.810;2022-12-19T02:46:20;51.72;;;32.88;;
61093;SDS011;46976;52.942;6.810;2022-12-19T02:48:47;30.08;;;12.15;;
61093;SDS011;46976;52.942;6.810;2022-12-19T02:51:14;32.10;;;12.23;;
61093;SDS011;46976;52.942;6.810;2022-12-19T02:53:40;54.00;;;34.13;;
61093;SDS011;46976;52.942;6.810;2022-12-19T02:56:17;32.08;;;12.27;;
61093;SDS011;46976;52.942;6.810;2022-12-19T02:58:51;30.92;;;12.82;;
61093;SDS011;46976;52.942;6.810;2022-12-19T03:01:43;31.42;;;12.60;;
61093;SDS011;46976;52.942;6.810;2022-12-19T03:06:52;60.50;;;36.60;;
61093;SDS011;46976;52.942;6.810;2022-12-19T03:11:45;31.02;;;11.90;;
61093;SDS011;46976;52.942;6.810;2022-12-19T03:14:13;65.50;;;37.38;;
61093;SDS011;46976;52.942;6.810;2022-12-19T03:16:40;27.13;;;11.52;;
61093;SDS011;46976;52.942;6.810;2022-12-19T03:19:07;33.83;;;12.98;;
61093;SDS011;46976;52.942;6.810;2022-12-19T03:24:00;34.92;;;13.63;;
61093;SDS011;46976;52.942;6.810;2022-12-19T03:26:27;75.95;;;39.75;;
61093;SDS011;46976;52.942;6.810;2022-12-19T03:29:01;75.72;;;41.15;;
61093;SDS011;46976;52.942;6.810;2022-12-19T03:31:30;35.55;;;13.95;;
61093;SDS011;46976;52.942;6.810;2022-12-19T03:33:59;34.35;;;13.88;;
61093;SDS011;46976;52.942;6.810;2022-12-19T03:36:29;84.78;;;42.95;;
61093;SDS011;46976;52.942;6.810;2022-12-19T03:38:57;73.88;;;40.75;;
61093;SDS011;46976;52.942;6.810;2022-12-19T03:41:25;69.18;;;40.90;;
61093;SDS011;46976;52.942;6.810;2022-12-19T03:44:12;36.22;;;15.25;;
61093;SDS011;46976;52.942;6.810;2022-12-19T03:46:41;32.55;;;14.27;;
61093;SDS011;46976;52.942;6.810;2022-12-19T03:49:10;80.00;;;42.40;;
61093;SDS011;46976;52.942;6.810;2022-12-19T03:51:45;72.50;;;41.08;;
61093;SDS011;46976;52.942;6.810;2022-12-19T03:54:29;40.10;;;17.40;;
61093;SDS011;46976;52.942;6.810;2022-12-19T04:01:51;84.22;;;48.05;;
61093;SDS011;46976;52.942;6.810;2022-12-19T04:04:18;42.47;;;17.95;;
61093;SDS011;46976;52.942;6.810;2022-12-19T04:06:46;73.63;;;45.85;;
61093;SDS011;46976;52.942;6.810;2022-12-19T04:09:13;89.72;;;49.58;;
61093;SDS011;46976;52.942;6.810;2022-12-19T04:11:43;93.70;;;51.03;;
61093;SDS011;46976;52.942;6.810;2022-12-19T04:14:11;91.93;;;48.42;;
61093;SDS011;46976;52.942;6.810;2022-12-19T04:16:43;41.42;;;16.02;;
61093;SDS011;46976;52.942;6.810;2022-12-19T04:19:34;43.88;;;17.02;;
61093;SDS011;46976;52.942;6.810;2022-12-19T04:22:01;98.72;;;52.30;;
61093;SDS011;46976;52.942;6.810;2022-12-19T04:24:30;100.28;;;51.15;;
61093;SDS011;46976;52.942;6.810;2022-12-19T04:26:58;91.03;;;50.15;;
61093;SDS011;46976;52.942;6.810;2022-12-19T04:29:24;94.18;;;49.83;;
61093;SDS011;46976;52.942;6.810;2022-12-19T04:31:51;81.53;;;48.53;;
61093;SDS011;46976;52.942;6.810;2022-12-19T04:34:18;39.67;;;14.30;;
61093;SDS011;46976;52.942;6.810;2022-12-19T04:36:45;39.20;;;16.95;;
61093;SDS011;46976;52.942;6.810;2022-12-19T04:39:11;94.43;;;50.45;;
61093;SDS011;46976;52.942;6.810;2022-12-19T04:41:37;86.95;;;48.95;;
61093;SDS011;46976;52.942;6.810;2022-12-19T04:44:03;92.22;;;51.13;;
61093;SDS011;46976;52.942;6.810;2022-12-19T04:46:30;83.80;;;48.53;;
61093;SDS011;46976;52.942;6.810;2022-12-19T04:48:56;50.30;;;19.38;;
61093;SDS011;46976;52.942;6.810;2022-12-19T04:51:22;86.30;;;48.53;;
61093;SDS011;46976;52.942;6.810;2022-12-19T04:53:48;81.30;;;47.75;;
61093;SDS011;46976;52.942;6.810;2022-12-19T04:56:14;42.83;;;16.95;;
61093;SDS011;46976;52.942;6.810;2022-12-19T04:58:40;81.72;;;48.63;;
61093;SDS011;46976;52.942;6.810;2022-12-19T05:01:07;79.68;;;47.72;;
61093;SDS011;46976;52.942;6.810;2022-12-19T05:03:33;82.95;;;48.28;;
61093;SDS011;46976;52.942;6.810;2022-12-19T05:06:07;32.85;;;13.43;;
61093;SDS011;46976;52.942;6.810;2022-12-19T05:08:34;41.55;;;16.25;;
61093;SDS011;46976;52.942;6.810;2022-12-19T05:11:00;78.22;;;47.08;;
61093;SDS011;46976;52.942;6.810;2022-12-19T05:13:26;85.68;;;47.88;;
61093;SDS011;46976;52.942;6.810;2022-12-19T05:15:56;79.82;;;46.28;;
61093;SDS011;46976;52.942;6.810;2022-12-19T05:18:23;77.28;;;46.58;;
61093;SDS011;46976;52.942;6.810;2022-12-19T05:20:49;79.35;;;47.03;;
61093;SDS011;46976;52.942;6.810;2022-12-19T05:23:15;79.50;;;47.92;;
61093;SDS011;46976;52.942;6.810;2022-12-19T05:25:41;89.35;;;50.28;;
61093;SDS011;46976;52.942;6.810;2022-12-19T05:28:07;85.05;;;49.13;;
61093;SDS011;46976;52.942;6.810;2022-12-19T05:30:33;44.88;;;17.55;;
61093;SDS011;46976;52.942;6.810;2022-12-19T05:32:59;92.97;;;50.63;;
61093;SDS011;46976;52.942;6.810;2022-12-19T05:35:26;98.97;;;52.15;;
61093;SDS011;46976;52.942;6.810;2022-12-19T05:37:52;83.28;;;48.42;;
61093;SDS011;46976;52.942;6.810;2022-12-19T05:40:18;87.40;;;50.05;;
61093;SDS011;46976;52.942;6.810;2022-12-19T05:42:44;72.95;;;45.53;;
61093;SDS011;46976;52.942;6.810;2022-12-19T05:45:10;89.20;;;49.83;;
61093;SDS011;46976;52.942;6.810;2022-12-19T05:47:36;77.03;;;47.80;;
61093;SDS011;46976;52.942;6.810;2022-12-19T05:50:02;37.88;;;16.65;;
61093;SDS011;46976;52.942;6.810;2022-12-19T05:52:29;84.45;;;49.10;;
61093;SDS011;46976;52.942;6.810;2022-12-19T05:54:56;69.45;;;44.95;;
61093;SDS011;46976;52.942;6.810;2022-12-19T05:57:22;78.38;;;47.17;;
61093;SDS011;46976;52.942;6.810;2022-12-19T05:59:48;90.18;;;49.53;;
61093;SDS011;46976;52.942;6.810;2022-12-19T06:02:14;80.88;;;47.60;;
61093;SDS011;46976;52.942;6.810;2022-12-19T06:04:40;36.92;;;15.57;;
61093;SDS011;46976;52.942;6.810;2022-12-19T06:07:06;75.07;;;45.50;;
61093;SDS011;46976;52.942;6.810;2022-12-19T06:09:32;72.28;;;44.30;;
61093;SDS011;46976;52.942;6.810;2022-12-19T06:11:58;31.13;;;14.13;;
61093;SDS011;46976;52.942;6.810;2022-12-19T06:14:24;81.25;;;46.40;;
61093;SDS011;46976;52.942;6.810;2022-12-19T06:16:51;81.53;;;46.38;;
61093;SDS011;46976;52.942;6.810;2022-12-19T06:19:18;27.60;;;12.45;;
61093;SDS011;46976;52.942;6.810;2022-12-19T06:21:44;67.18;;;42.40;;
61093;SDS011;46976;52.942;6.810;2022-12-19T06:24:10;73.35;;;44.47;;
61093;SDS011;46976;52.942;6.810;2022-12-19T06:26:36;59.00;;;40.17;;
61093;SDS011;46976;52.942;6.810;2022-12-19T06:29:02;74.53;;;44.08;;
61093;SDS011;46976;52.942;6.810;2022-12-19T06:31:28;63.90;;;41.88;;
61093;SDS011;46976;52.942;6.810;2022-12-19T06:33:55;33.50;;;13.70;;
61093;SDS011;46976;52.942;6.810;2022-12-19T06:36:22;59.03;;;40.40;;
61093;SDS011;46976;52.942;6.810;2022-12-19T06:38:48;72.80;;;43.78;;
61093;SDS011;46976;52.942;6.810;2022-12-19T06:41:16;65.45;;;41.63;;
61093;SDS011;46976;52.942;6.810;2022-12-19T06:44:01;68.57;;;42.38;;
61093;SDS011;46976;52.942;6.810;2022-12-19T06:46:28;60.70;;;40.17;;
61093;SDS011;46976;52.942;6.810;2022-12-19T06:48:54;66.65;;;41.15;;
61093;SDS011;46976;52.942;6.810;2022-12-19T06:51:21;57.55;;;39.10;;
61093;SDS011;46976;52.942;6.810;2022-12-19T06:53:47;33.75;;;14.88;;
61093;SDS011;46976;52.942;6.810;2022-12-19T06:56:14;61.78;;;38.67;;
61093;SDS011;46976;52.942;6.810;2022-12-19T06:58:40;55.95;;;36.85;;
61093;SDS011;46976;52.942;6.810;2022-12-19T07:01:07;50.75;;;33.70;;
61093;SDS011;46976;52.942;6.810;2022-12-19T07:03:40;52.20;;;35.03;;
61093;SDS011;46976;52.942;6.810;2022-12-19T07:06:06;53.95;;;35.72;;
61093;SDS011;46976;52.942;6.810;2022-12-19T07:08:32;46.20;;;32.78;;
61093;SDS011;46976;52.942;6.810;2022-12-19T07:10:59;47.75;;;33.28;;
61093;SDS011;46976;52.942;6.810;2022-12-19T07:13:25;20.17;;;8.80;;
61093;SDS011;46976;52.942;6.810;2022-12-19T07:15:51;45.90;;;32.15;;
61093;SDS011;46976;52.942;6.810;2022-12-19T07:18:19;46.20;;;32.75;;
61093;SDS011;46976;52.942;6.810;2022-12-19T07:20:45;44.05;;;30.73;;
61093;SDS011;46976;52.942;6.810;2022-12-19T07:23:12;48.97;;;33.85;;
61093;SDS011;46976;52.942;6.810;2022-12-19T07:25:40;48.78;;;32.85;;
61093;SDS011;46976;52.942;6.810;2022-12-19T07:28:06;53.70;;;35.72;;
61093;SDS011;46976;52.942;6.810;2022-12-19T07:30:33;56.88;;;35.95;;
61093;SDS011;46976;52.942;6.810;2022-12-19T07:32:59;51.78;;;33.67;;
61093;SDS011;46976;52.942;6.810;2022-12-19T07:35:25;51.40;;;34.65;;
61093;SDS011;46976;52.942;6.810;2022-12-19T07:37:52;58.03;;;36.75;;
61093;SDS011;46976;52.942;6.810;2022-12-19T07:40:18;51.38;;;34.60;;
61093;SDS011;46976;52.942;6.810;2022-12-19T07:42:44;58.70;;;35.58;;
61093;SDS011;46976;52.942;6.810;2022-12-19T07:45:10;45.67;;;31.88;;
61093;SDS011;46976;52.942;6.810;2022-12-19T07:47:37;45.05;;;31.38;;
61093;SDS011;46976;52.942;6.810;2022-12-19T07:50:03;24.48;;;10.57;;
61093;SDS011;46976;52.942;6.810;2022-12-19T07:52:29;58.53;;;35.83;;
61093;SDS011;46976;52.942;6.810;2022-12-19T07:54:55;54.00;;;33.92;;
61093;SDS011;46976;52.942;6.810;2022-12-19T07:57:21;46.75;;;31.45;;
61093;SDS011;46976;52.942;6.810;2022-12-19T07:59:47;40.42;;;29.63;;
61093;SDS011;46976;52.942;6.810;2022-12-19T08:02:14;55.05;;;34.28;;
61093;SDS011;46976;52.942;6.810;2022-12-19T08:04:40;47.75;;;32.80;;
61093;SDS011;46976;52.942;6.810;2022-12-19T08:07:06;49.65;;;33.47;;
61093;SDS011;46976;52.942;6.810;2022-12-19T08:09:32;60.00;;;35.13;;
61093;SDS011;46976;52.942;6.810;2022-12-19T08:11:58;18.95;;;8.32;;
61093;SDS011;46976;52.942;6.810;2022-12-19T08:14:24;58.28;;;35.25;;
61093;SDS011;46976;52.942;6.810;2022-12-19T08:16:50;45.90;;;30.67;;
61093;SDS011;46976;52.942;6.810;2022-12-19T08:19:16;49.03;;;31.42;;
61093;SDS011;46976;52.942;6.810;2022-12-19T08:21:42;43.75;;;29.63;;
61093;SDS011;46976;52.942;6.810;2022-12-19T08:24:09;47.03;;;30.88;;
61093;SDS011;46976;52.942;6.810;2022-12-19T08:26:35;47.38;;;30.45;;
61093;SDS011;46976;52.942;6.810;2022-12-19T08:29:01;47.53;;;30.55;;
61093;SDS011;46976;52.942;6.810;2022-12-19T08:31:27;54.00;;;33.13;;
61093;SDS011;46976;52.942;6.810;2022-12-19T08:33:54;47.95;;;31.83;;
61093;SDS011;46976;52.942;6.810;2022-12-19T08:36:21;48.50;;;30.35;;
61093;SDS011;46976;52.942;6.810;2022-12-19T08:38:47;50.63;;;31.70;;
61093;SDS011;46976;52.942;6.810;2022-12-19T08:41:14;44.05;;;29.75;;
61093;SDS011;46976;52.942;6.810;2022-12-19T08:43:41;57.13;;;33.42;;
61093;SDS011;46976;52.942;6.810;2022-12-19T08:46:08;39.85;;;27.63;;
61093;SDS011;46976;52.942;6.810;2022-12-19T08:48:34;39.00;;;26.90;;
61093;SDS011;46976;52.942;6.810;2022-12-19T08:51:04;37.13;;;27.35;;
61093;SDS011;46976;52.942;6.810;2022-12-19T08:53:32;40.97;;;27.80;;
61093;SDS011;46976;52.942;6.810;2022-12-19T08:56:00;50.83;;;31.08;;
61093;SDS011;46976;52.942;6.810;2022-12-19T08:58:27;42.10;;;28.92;;
61093;SDS011;46976;52.942;6.810;2022-12-19T09:00:53;37.00;;;26.35;;
61093;SDS011;46976;52.942;6.810;2022-12-19T09:03:23;39.67;;;27.88;;
61093;SDS011;46976;52.942;6.810;2022-12-19T09:05:59;38.25;;;27.50;;
61093;SDS011;46976;52.942;6.810;2022-12-19T09:08:25;37.67;;;27.38;;
61093;SDS011;46976;52.942;6.810;2022-12-19T09:11:00;47.72;;;30.35;;
61093;SDS011;46976;52.942;6.810;2022-12-19T09:13:26;40.40;;;28.45;;
61093;SDS011;46976;52.942;6.810;2022-12-19T09:18:25;43.13;;;29.65;;
61093;SDS011;46976;52.942;6.810;2022-12-19T09:20:52;35.80;;;26.50;;
61093;SDS011;46976;52.942;6.810;2022-12-19T09:23:19;44.90;;;31.42;;
61093;SDS011;46976;52.942;6.810;2022-12-19T09:25:45;47.85;;;32.08;;
61093;SDS011;46976;52.942;6.810;2022-12-19T09:28:11;47.45;;;31.45;;
61093;SDS011;46976;52.942;6.810;2022-12-19T09:30:38;42.30;;;30.42;;
61093;SDS011;46976;52.942;6.810;2022-12-19T09:33:04;47.97;;;32.63;;
61093;SDS011;46976;52.942;6.810;2022-12-19T09:35:30;46.55;;;32.72;;
61093;SDS011;46976;52.942;6.810;2022-12-19T09:37:56;46.03;;;31.95;;
61093;SDS011;46976;52.942;6.810;2022-12-19T09:40:23;38.83;;;29.42;;
61093;SDS011;46976;52.942;6.810;2022-12-19T09:47:46;17.45;;;8.15;;
61093;SDS011;46976;52.942;6.810;2022-12-19T09:52:54;44.88;;;32.05;;
61093;SDS011;46976;52.942;6.810;2022-12-19T09:55:23;38.35;;;28.50;;
61093;SDS011;46976;52.942;6.810;2022-12-19T10:00:20;43.33;;;31.45;;
61093;SDS011;46976;52.942;6.810;2022-12-19T10:02:55;33.05;;;26.02;;
61093;SDS011;46976;52.942;6.810;2022-12-19T10:05:29;40.45;;;29.33;;
61093;SDS011;46976;52.942;6.810;2022-12-19T10:07:56;46.88;;;31.75;;
61093;SDS011;46976;52.942;6.810;2022-12-19T10:10:30;43.78;;;31.27;;
61093;SDS011;46976;52.942;6.810;2022-12-19T10:13:07;36.97;;;28.35;;
61093;SDS011;46976;52.942;6.810;2022-12-19T10:15:46;33.15;;;26.30;;
61093;SDS011;46976;52.942;6.810;2022-12-19T10:18:34;40.63;;;29.20;;
61093;SDS011;46976;52.942;6.810;2022-12-19T10:21:05;43.00;;;29.60;;
61093;SDS011;46976;52.942;6.810;2022-12-19T10:26:16;34.08;;;25.65;;
61093;SDS011;46976;52.942;6.810;2022-12-19T10:33:44;34.50;;;26.63;;
61093;SDS011;46976;52.942;6.810;2022-12-19T10:36:12;35.00;;;26.15;;
61093;SDS011;46976;52.942;6.810;2022-12-19T10:38:42;36.78;;;26.55;;
61093;SDS011;46976;52.942;6.810;2022-12-19T10:46:16;32.85;;;24.80;;
61093;SDS011;46976;52.942;6.810;2022-12-19T10:48:44;30.08;;;22.60;;
61093;SDS011;46976;52.942;6.810;2022-12-19T10:51:11;34.08;;;25.25;;
61093;SDS011;46976;52.942;6.810;2022-12-19T10:53:37;18.20;;;8.00;;
61093;SDS011;46976;52.942;6.810;2022-12-19T10:56:11;30.77;;;23.73;;
61093;SDS011;46976;52.942;6.810;2022-12-19T10:58:40;27.38;;;22.35;;
61093;SDS011;46976;52.942;6.810;2022-12-19T11:01:20;27.70;;;22.15;;
61093;SDS011;46976;52.942;6.810;2022-12-19T11:11:42;28.27;;;22.10;;
61093;SDS011;46976;52.942;6.810;2022-12-19T11:14:28;28.35;;;22.80;;
61093;SDS011;46976;52.942;6.810;2022-12-19T11:16:55;27.67;;;21.85;;
61093;SDS011;46976;52.942;6.810;2022-12-19T11:21:58;28.13;;;22.13;;
61093;SDS011;46976;52.942;6.810;2022-12-19T11:24:30;32.15;;;23.95;;
61093;SDS011;46976;52.942;6.810;2022-12-19T11:26:59;30.70;;;23.42;;
61093;SDS011;46976;52.942;6.810;2022-12-19T11:34:21;26.25;;;20.88;;
61093;SDS011;46976;52.942;6.810;2022-12-19T11:36:53;27.95;;;21.95;;
61093;SDS011;46976;52.942;6.810;2022-12-19T11:39:22;26.98;;;21.52;;
61093;SDS011;46976;52.942;6.810;2022-12-19T11:42:04;26.65;;;20.83;;
61093;SDS011;46976;52.942;6.810;2022-12-19T11:44:42;27.67;;;21.25;;
61093;SDS011;46976;52.942;6.810;2022-12-19T11:52:16;28.67;;;22.27;;
61093;SDS011;46976;52.942;6.810;2022-12-19T11:54:58;30.23;;;22.40;;
61093;SDS011;46976;52.942;6.810;2022-12-19T11:57:25;25.40;;;20.40;;
61093;SDS011;46976;52.942;6.810;2022-12-19T11:59:52;29.42;;;22.25;;
61093;SDS011;46976;52.942;6.810;2022-12-19T12:02:23;28.88;;;22.23;;
61093;SDS011;46976;52.942;6.810;2022-12-19T12:07:39;30.10;;;23.58;;
61093;SDS011;46976;52.942;6.810;2022-12-19T12:10:18;26.40;;;21.63;;
61093;SDS011;46976;52.942;6.810;2022-12-19T12:12:49;29.15;;;21.83;;
61093;SDS011;46976;52.942;6.810;2022-12-19T12:15:34;28.88;;;21.98;;
61093;SDS011;46976;52.942;6.810;2022-12-19T12:26:16;25.45;;;20.45;;
61093;SDS011;46976;52.942;6.810;2022-12-19T12:29:05;25.90;;;20.67;;
61093;SDS011;46976;52.942;6.810;2022-12-19T12:44:40;23.65;;;19.40;;
61093;SDS011;46976;52.942;6.810;2022-12-19T12:47:16;21.90;;;18.25;;
61093;SDS011;46976;52.942;6.810;2022-12-19T12:52:17;25.77;;;19.90;;
61093;SDS011;46976;52.942;6.810;2022-12-19T12:54:45;21.20;;;17.55;;
61093;SDS011;46976;52.942;6.810;2022-12-19T12:57:19;21.60;;;18.02;;
61093;SDS011;46976;52.942;6.810;2022-12-19T13:02:44;21.38;;;18.23;;
61093;SDS011;46976;52.942;6.810;2022-12-19T13:05:21;22.17;;;18.13;;
61093;SDS011;46976;52.942;6.810;2022-12-19T13:07:49;20.95;;;17.40;;
61093;SDS011;46976;52.942;6.810;2022-12-19T13:10:23;19.98;;;17.33;;
61093;SDS011;46976;52.942;6.810;2022-12-19T13:27:49;20.67;;;18.00;;
61093;SDS011;46976;52.942;6.810;2022-12-19T13:30:15;24.77;;;20.13;;
61093;SDS011;46976;52.942;6.810;2022-12-19T13:37:47;22.58;;;17.77;;
61093;SDS011;46976;52.942;6.810;2022-12-19T13:42:49;23.15;;;19.98;;
61093;SDS011;46976;52.942;6.810;2022-12-19T13:45:35;24.02;;;18.60;;
61093;SDS011;46976;52.942;6.810;2022-12-19T13:48:03;22.48;;;17.70;;
61093;SDS011;46976;52.942;6.810;2022-12-19T13:50:35;20.92;;;17.10;;
61093;SDS011;46976;52.942;6.810;2022-12-19T13:53:01;22.65;;;18.52;;
61093;SDS011;46976;52.942;6.810;2022-12-19T13:55:33;14.45;;;7.40;;
61093;SDS011;46976;52.942;6.810;2022-12-19T13:58:03;20.17;;;16.70;;
61093;SDS011;46976;52.942;6.810;2022-12-19T14:00:34;20.20;;;17.75;;
61093;SDS011;46976;52.942;6.810;2022-12-19T14:03:01;19.05;;;15.13;;
61093;SDS011;46976;52.942;6.810;2022-12-19T14:05:36;19.20;;;15.60;;
61093;SDS011;46976;52.942;6.810;2022-12-19T14:08:04;17.75;;;15.02;;
61093;SDS011;46976;52.942;6.810;2022-12-19T14:10:31;18.38;;;15.88;;
61093;SDS011;46976;52.942;6.810;2022-12-19T14:12:58;19.00;;;15.07;;
61093;SDS011;46976;52.942;6.810;2022-12-19T14:15:46;17.27;;;13.90;;
61093;SDS011;46976;52.942;6.810;2022-12-19T14:20:39;17.10;;;14.38;;
61093;SDS011;46976;52.942;6.810;2022-12-19T14:23:05;16.52;;;13.55;;
61093;SDS011;46976;52.942;6.810;2022-12-19T14:25:52;15.00;;;12.73;;
61093;SDS011;46976;52.942;6.810;2022-12-19T14:28:18;17.73;;;14.50;;
61093;SDS011;46976;52.942;6.810;2022-12-19T14:30:46;15.50;;;12.35;;
61093;SDS011;46976;52.942;6.810;2022-12-19T14:33:17;15.30;;;12.52;;
61093;SDS011;46976;52.942;6.810;2022-12-19T14:35:46;17.13;;;13.73;;
61093;SDS011;46976;52.942;6.810;2022-12-19T14:38:15;16.73;;;12.98;;
61093;SDS011;46976;52.942;6.810;2022-12-19T14:40:42;17.00;;;12.85;;
61093;SDS011;46976;52.942;6.810;2022-12-19T14:43:12;16.15;;;12.98;;
61093;SDS011;46976;52.942;6.810;2022-12-19T14:49:01;14.65;;;11.25;;
61093;SDS011;46976;52.942;6.810;2022-12-19T14:51:35;18.42;;;13.43;;
61093;SDS011;46976;52.942;6.810;2022-12-19T14:56:32;16.70;;;12.93;;
61093;SDS011;46976;52.942;6.810;2022-12-19T14:58:58;16.52;;;12.93;;
61093;SDS011;46976;52.942;6.810;2022-12-19T15:01:26;16.58;;;12.60;;
61093;SDS011;46976;52.942;6.810;2022-12-19T15:04:03;16.85;;;12.75;;
61093;SDS011;46976;52.942;6.810;2022-12-19T15:06:30;14.88;;;11.95;;
61093;SDS011;46976;52.942;6.810;2022-12-19T15:08:59;15.95;;;12.25;;
61093;SDS011;46976;52.942;6.810;2022-12-19T15:11:27;17.77;;;13.40;;
61093;SDS011;46976;52.942;6.810;2022-12-19T15:14:12;16.38;;;13.00;;
61093;SDS011;46976;52.942;6.810;2022-12-19T15:16:38;17.63;;;12.45;;
61093;SDS011;46976;52.942;6.810;2022-12-19T15:19:09;16.50;;;12.30;;
61093;SDS011;46976;52.942;6.810;2022-12-19T15:21:35;15.27;;;12.05;;
61093;SDS011;46976;52.942;6.810;2022-12-19T15:24:01;15.45;;;12.65;;
61093;SDS011;46976;52.942;6.810;2022-12-19T15:26:29;15.40;;;13.18;;
61093;SDS011;46976;52.942;6.810;2022-12-19T15:28:56;17.65;;;12.55;;
61093;SDS011;46976;52.942;6.810;2022-12-19T15:33:48;16.58;;;11.95;;
61093;SDS011;46976;52.942;6.810;2022-12-19T15:36:14;15.52;;;11.85;;
61093;SDS011;46976;52.942;6.810;2022-12-19T15:38:41;14.57;;;11.55;;
61093;SDS011;46976;52.942;6.810;2022-12-19T15:41:08;15.40;;;11.30;;
61093;SDS011;46976;52.942;6.810;2022-12-19T15:43:36;14.38;;;11.02;;
61093;SDS011;46976;52.942;6.810;2022-12-19T15:46:03;15.30;;;11.73;;
61093;SDS011;46976;52.942;6.810;2022-12-19T15:48:29;15.93;;;11.52;;
61093;SDS011;46976;52.942;6.810;2022-12-19T15:50:55;15.63;;;11.70;;
61093;SDS011;46976;52.942;6.810;2022-12-19T15:53:25;14.55;;;11.55;;
61093;SDS011;46976;52.942;6.810;2022-12-19T15:55:51;14.30;;;11.63;;
61093;SDS011;46976;52.942;6.810;2022-12-19T15:58:18;15.48;;;12.23;;
61093;SDS011;46976;52.942;6.810;2022-12-19T16:00:54;16.77;;;12.65;;
61093;SDS011;46976;52.942;6.810;2022-12-19T16:03:22;14.88;;;12.13;;
61093;SDS011;46976;52.942;6.810;2022-12-19T16:05:49;15.82;;;12.18;;
61093;SDS011;46976;52.942;6.810;2022-12-19T16:08:16;19.23;;;12.80;;
61093;SDS011;46976;52.942;6.810;2022-12-19T16:10:44;18.02;;;12.77;;
61093;SDS011;46976;52.942;6.810;2022-12-19T16:13:21;16.90;;;12.95;;
61093;SDS011;46976;52.942;6.810;2022-12-19T16:15:48;16.30;;;13.25;;
61093;SDS011;46976;52.942;6.810;2022-12-19T16:18:14;17.45;;;13.20;;
61093;SDS011;46976;52.942;6.810;2022-12-19T16:20:41;19.55;;;14.05;;
61093;SDS011;46976;52.942;6.810;2022-12-19T16:23:07;18.02;;;13.32;;
61093;SDS011;46976;52.942;6.810;2022-12-19T16:25:42;19.10;;;13.45;;
61093;SDS011;46976;52.942;6.810;2022-12-19T16:30:57;17.75;;;13.65;;
61093;SDS011;46976;52.942;6.810;2022-12-19T16:33:24;18.50;;;14.43;;
61093;SDS011;46976;52.942;6.810;2022-12-19T16:35:52;19.27;;;14.18;;
61093;SDS011;46976;52.942;6.810;2022-12-19T16:38:18;18.05;;;14.60;;
61093;SDS011;46976;52.942;6.810;2022-12-19T16:40:44;18.33;;;14.38;;
61093;SDS011;46976;52.942;6.810;2022-12-19T16:45:52;20.35;;;16.92;;
61093;SDS011;46976;52.942;6.810;2022-12-19T16:48:19;18.35;;;14.60;;
61093;SDS011;46976;52.942;6.810;2022-12-19T16:50:45;17.85;;;14.52;;